sensor_id;sensor_type;location;lat;lon;timestamp;P1;durP1;ratioP1;P2;durP2;ratioP2
55913;SDS011;58179;48.776;9.124;2023-04-03T00:02:13;11.85;;;6.70;;
55913;SDS011;58179;48.776;9.124;2023-04-03T00:04:39;11.95;;;6.43;;
55913;SDS011;58179;48.776;9.124;2023-04-03T00:07:05;9.30;;;6.80;;
55913;SDS011;58179;48.776;9.124;2023-04-03T00:09:31;9.98;;;6.25;;
55913;SDS011;58179;48.776;9.124;2023-04-03T00:11:57;9.97;;;7.13;;
55913;SDS011;58179;48.776;9.124;2023-04-03T00:14:23;10.20;;;6.60;;
55913;SDS011;58179;48.776;9.124;2023-04-03T00:16:51;9.68;;;6.93;;
55913;SDS011;58179;48.776;9.124;2023-04-03T00:19:16;10.20;;;6.95;;
55913;SDS011;58179;48.776;9.124;2023-04-03T00:21:42;10.60;;;7.32;;
55913;SDS011;58179;48.776;9.124;2023-04-03T00:24:10;10.55;;;6.68;;
55913;SDS011;58179;48.776;9.124;2023-04-03T00:26:36;8.05;;;6.28;;
55913;SDS011;58179;48.776;9.124;2023-04-03T00:29:03;9.10;;;6.25;;
55913;SDS011;58179;48.776;9.124;2023-04-03T00:31:29;8.85;;;6.90;;
55913;SDS011;58179;48.776;9.124;2023-04-03T00:33:57;10.75;;;6.53;;
55913;SDS011;58179;48.776;9.124;2023-04-03T00:36:23;10.43;;;6.88;;
55913;SDS011;58179;48.776;9.124;2023-04-03T00:38:49;9.30;;;6.65;;
55913;SDS011;58179;48.776;9.124;2023-04-03T00:41:15;9.55;;;7.03;;
55913;SDS011;58179;48.776;9.124;2023-04-03T00:43:41;10.25;;;6.97;;
55913;SDS011;58179;48.776;9.124;2023-04-03T00:46:07;10.60;;;7.17;;
55913;SDS011;58179;48.776;9.124;2023-04-03T00:48:34;10.63;;;7.13;;
55913;SDS011;58179;48.776;9.124;2023-04-03T00:51:07;10.55;;;6.82;;
55913;SDS011;58179;48.776;9.124;2023-04-03T00:53:41;10.30;;;7.40;;
55913;SDS011;58179;48.776;9.124;2023-04-03T00:56:11;9.93;;;7.03;;
55913;SDS011;58179;48.776;9.124;2023-04-03T00:58:43;10.02;;;6.90;;
55913;SDS011;58179;48.776;9.124;2023-04-03T01:01:15;10.65;;;6.60;;
55913;SDS011;58179;48.776;9.124;2023-04-03T01:03:46;8.75;;;6.55;;
55913;SDS011;58179;48.776;9.124;2023-04-03T01:06:14;8.38;;;6.18;;
55913;SDS011;58179;48.776;9.124;2023-04-03T01:08:44;12.35;;;7.53;;
55913;SDS011;58179;48.776;9.124;2023-04-03T01:11:13;9.32;;;7.10;;
55913;SDS011;58179;48.776;9.124;2023-04-03T01:13:41;10.63;;;6.75;;
55913;SDS011;58179;48.776;9.124;2023-04-03T01:16:07;9.55;;;7.00;;
55913;SDS011;58179;48.776;9.124;2023-04-03T01:18:34;9.97;;;6.40;;
55913;SDS011;58179;48.776;9.124;2023-04-03T01:21:17;9.05;;;6.18;;
55913;SDS011;58179;48.776;9.124;2023-04-03T01:24:15;8.95;;;6.18;;
55913;SDS011;58179;48.776;9.124;2023-04-03T01:26:52;10.75;;;6.93;;
55913;SDS011;58179;48.776;9.124;2023-04-03T01:29:18;9.30;;;6.35;;
55913;SDS011;58179;48.776;9.124;2023-04-03T01:31:51;9.35;;;6.80;;
55913;SDS011;58179;48.776;9.124;2023-04-03T01:34:19;8.60;;;6.68;;
55913;SDS011;58179;48.776;9.124;2023-04-03T01:36:46;11.10;;;7.00;;
55913;SDS011;58179;48.776;9.124;2023-04-03T01:39:12;8.43;;;6.40;;
55913;SDS011;58179;48.776;9.124;2023-04-03T01:41:38;11.57;;;7.22;;
55913;SDS011;58179;48.776;9.124;2023-04-03T01:44:04;12.38;;;7.63;;
55913;SDS011;58179;48.776;9.124;2023-04-03T01:46:31;14.82;;;8.05;;
55913;SDS011;58179;48.776;9.124;2023-04-03T01:48:58;11.15;;;6.93;;
55913;SDS011;58179;48.776;9.124;2023-04-03T01:51:24;11.52;;;7.55;;
55913;SDS011;58179;48.776;9.124;2023-04-03T01:53:50;9.43;;;6.97;;
55913;SDS011;58179;48.776;9.124;2023-04-03T01:56:16;10.48;;;7.20;;
55913;SDS011;58179;48.776;9.124;2023-04-03T01:58:42;9.20;;;6.65;;
55913;SDS011;58179;48.776;9.124;2023-04-03T02:01:08;10.52;;;7.40;;
55913;SDS011;58179;48.776;9.124;2023-04-03T02:03:34;10.90;;;7.47;;
55913;SDS011;58179;48.776;9.124;2023-04-03T02:06:02;10.38;;;7.53;;
55913;SDS011;58179;48.776;9.124;2023-04-03T02:08:28;8.82;;;6.80;;
55913;SDS011;58179;48.776;9.124;2023-04-03T02:10:54;10.48;;;7.40;;
55913;SDS011;58179;48.776;9.124;2023-04-03T02:13:20;11.77;;;7.60;;
55913;SDS011;58179;48.776;9.124;2023-04-03T02:15:46;11.97;;;7.90;;
55913;SDS011;58179;48.776;9.124;2023-04-03T02:18:12;9.15;;;7.13;;
55913;SDS011;58179;48.776;9.124;2023-04-03T02:20:39;12.77;;;7.97;;
55913;SDS011;58179;48.776;9.124;2023-04-03T02:23:06;9.77;;;7.22;;
55913;SDS011;58179;48.776;9.124;2023-04-03T02:25:33;8.77;;;7.07;;
55913;SDS011;58179;48.776;9.124;2023-04-03T02:27:59;10.48;;;7.63;;
55913;SDS011;58179;48.776;9.124;2023-04-03T02:30:25;11.25;;;7.40;;
55913;SDS011;58179;48.776;9.124;2023-04-03T02:32:51;10.45;;;7.45;;
55913;SDS011;58179;48.776;9.124;2023-04-03T02:35:17;16.40;;;8.40;;
55913;SDS011;58179;48.776;9.124;2023-04-03T02:37:43;10.57;;;7.55;;
55913;SDS011;58179;48.776;9.124;2023-04-03T02:40:11;11.45;;;7.10;;
55913;SDS011;58179;48.776;9.124;2023-04-03T02:42:37;13.45;;;8.82;;
55913;SDS011;58179;48.776;9.124;2023-04-03T02:45:03;10.90;;;7.20;;
55913;SDS011;58179;48.776;9.124;2023-04-03T02:47:30;10.95;;;7.60;;
55913;SDS011;58179;48.776;9.124;2023-04-03T02:49:56;11.73;;;7.85;;
55913;SDS011;58179;48.776;9.124;2023-04-03T02:52:22;13.43;;;7.60;;
55913;SDS011;58179;48.776;9.124;2023-04-03T02:54:48;10.05;;;6.97;;
55913;SDS011;58179;48.776;9.124;2023-04-03T02:57:15;8.85;;;6.95;;
55913;SDS011;58179;48.776;9.124;2023-04-03T02:59:44;11.10;;;7.65;;
55913;SDS011;58179;48.776;9.124;2023-04-03T03:02:10;10.23;;;7.72;;
55913;SDS011;58179;48.776;9.124;2023-04-03T03:04:36;12.30;;;7.80;;
55913;SDS011;58179;48.776;9.124;2023-04-03T03:07:02;10.38;;;7.40;;
55913;SDS011;58179;48.776;9.124;2023-04-03T03:09:29;12.43;;;7.70;;
55913;SDS011;58179;48.776;9.124;2023-04-03T03:11:55;9.25;;;6.97;;
55913;SDS011;58179;48.776;9.124;2023-04-03T03:14:22;9.73;;;7.38;;
55913;SDS011;58179;48.776;9.124;2023-04-03T03:16:48;12.20;;;7.32;;
55913;SDS011;58179;48.776;9.124;2023-04-03T03:19:15;9.25;;;6.97;;
55913;SDS011;58179;48.776;9.124;2023-04-03T03:21:41;9.23;;;6.77;;
55913;SDS011;58179;48.776;9.124;2023-04-03T03:24:07;9.55;;;7.22;;
55913;SDS011;58179;48.776;9.124;2023-04-03T03:26:33;11.82;;;7.60;;
55913;SDS011;58179;48.776;9.124;2023-04-03T03:29:00;10.32;;;7.18;;
55913;SDS011;58179;48.776;9.124;2023-04-03T03:31:28;11.15;;;7.28;;
55913;SDS011;58179;48.776;9.124;2023-04-03T03:33:53;9.95;;;7.15;;
55913;SDS011;58179;48.776;9.124;2023-04-03T03:36:19;8.60;;;6.88;;
55913;SDS011;58179;48.776;9.124;2023-04-03T03:38:45;9.60;;;6.90;;
55913;SDS011;58179;48.776;9.124;2023-04-03T03:41:11;12.10;;;7.30;;
55913;SDS011;58179;48.776;9.124;2023-04-03T03:43:37;10.70;;;6.63;;
55913;SDS011;58179;48.776;9.124;2023-04-03T03:46:03;11.85;;;6.90;;
55913;SDS011;58179;48.776;9.124;2023-04-03T03:48:30;10.07;;;6.95;;
55913;SDS011;58179;48.776;9.124;2023-04-03T03:50:56;8.63;;;6.55;;
55913;SDS011;58179;48.776;9.124;2023-04-03T03:53:22;10.88;;;7.70;;
55913;SDS011;58179;48.776;9.124;2023-04-03T03:55:48;9.45;;;6.82;;
55913;SDS011;58179;48.776;9.124;2023-04-03T03:58:14;9.83;;;7.03;;
55913;SDS011;58179;48.776;9.124;2023-04-03T04:00:40;9.68;;;7.15;;
55913;SDS011;58179;48.776;9.124;2023-04-03T04:03:06;10.63;;;6.40;;
55913;SDS011;58179;48.776;9.124;2023-04-03T04:05:33;9.50;;;6.60;;
55913;SDS011;58179;48.776;9.124;2023-04-03T04:07:59;9.27;;;6.43;;
55913;SDS011;58179;48.776;9.124;2023-04-03T04:10:25;9.43;;;6.33;;
55913;SDS011;58179;48.776;9.124;2023-04-03T04:12:51;10.77;;;6.72;;
55913;SDS011;58179;48.776;9.124;2023-04-03T04:15:17;11.15;;;7.10;;
55913;SDS011;58179;48.776;9.124;2023-04-03T04:17:44;9.65;;;6.45;;
55913;SDS011;58179;48.776;9.124;2023-04-03T04:20:10;11.00;;;6.93;;
55913;SDS011;58179;48.776;9.124;2023-04-03T04:22:38;10.07;;;6.33;;
55913;SDS011;58179;48.776;9.124;2023-04-03T04:25:04;9.52;;;6.75;;
55913;SDS011;58179;48.776;9.124;2023-04-03T04:27:32;10.45;;;7.10;;
55913;SDS011;58179;48.776;9.124;2023-04-03T04:29:58;10.73;;;6.85;;
55913;SDS011;58179;48.776;9.124;2023-04-03T04:32:23;8.27;;;6.55;;
55913;SDS011;58179;48.776;9.124;2023-04-03T04:34:49;9.60;;;6.70;;
55913;SDS011;58179;48.776;9.124;2023-04-03T04:37:15;11.00;;;7.15;;
55913;SDS011;58179;48.776;9.124;2023-04-03T04:39:43;10.05;;;6.90;;
55913;SDS011;58179;48.776;9.124;2023-04-03T04:42:10;9.85;;;6.45;;
55913;SDS011;58179;48.776;9.124;2023-04-03T04:44:39;8.45;;;6.60;;
55913;SDS011;58179;48.776;9.124;2023-04-03T04:47:05;10.55;;;7.20;;
55913;SDS011;58179;48.776;9.124;2023-04-03T04:49:31;13.93;;;7.53;;
55913;SDS011;58179;48.776;9.124;2023-04-03T04:51:57;10.02;;;6.72;;
55913;SDS011;58179;48.776;9.124;2023-04-03T04:54:23;8.65;;;6.47;;
55913;SDS011;58179;48.776;9.124;2023-04-03T04:56:50;9.25;;;6.35;;
55913;SDS011;58179;48.776;9.124;2023-04-03T04:59:16;8.13;;;6.53;;
55913;SDS011;58179;48.776;9.124;2023-04-03T05:01:42;10.50;;;6.68;;
55913;SDS011;58179;48.776;9.124;2023-04-03T05:04:08;13.40;;;7.70;;
55913;SDS011;58179;48.776;9.124;2023-04-03T05:06:34;7.72;;;6.22;;
55913;SDS011;58179;48.776;9.124;2023-04-03T05:09:00;8.87;;;6.27;;
55913;SDS011;58179;48.776;9.124;2023-04-03T05:11:26;10.45;;;6.65;;
55913;SDS011;58179;48.776;9.124;2023-04-03T05:13:53;9.07;;;6.53;;
55913;SDS011;58179;48.776;9.124;2023-04-03T05:16:19;10.30;;;6.60;;
55913;SDS011;58179;48.776;9.124;2023-04-03T05:18:45;9.50;;;7.07;;
55913;SDS011;58179;48.776;9.124;2023-04-03T05:21:11;10.20;;;6.22;;
55913;SDS011;58179;48.776;9.124;2023-04-03T05:23:38;8.30;;;6.07;;
55913;SDS011;58179;48.776;9.124;2023-04-03T05:26:04;8.65;;;5.85;;
55913;SDS011;58179;48.776;9.124;2023-04-03T05:28:30;10.57;;;6.10;;
55913;SDS011;58179;48.776;9.124;2023-04-03T05:30:58;8.90;;;6.30;;
55913;SDS011;58179;48.776;9.124;2023-04-03T05:33:25;8.57;;;5.70;;
55913;SDS011;58179;48.776;9.124;2023-04-03T05:35:51;10.98;;;6.50;;
55913;SDS011;58179;48.776;9.124;2023-04-03T05:38:17;8.30;;;6.10;;
55913;SDS011;58179;48.776;9.124;2023-04-03T05:40:43;8.35;;;5.78;;
55913;SDS011;58179;48.776;9.124;2023-04-03T05:43:09;8.13;;;6.07;;
55913;SDS011;58179;48.776;9.124;2023-04-03T05:45:35;7.68;;;6.00;;
55913;SDS011;58179;48.776;9.124;2023-04-03T05:48:04;7.88;;;5.95;;
55913;SDS011;58179;48.776;9.124;2023-04-03T05:50:30;9.93;;;6.33;;
55913;SDS011;58179;48.776;9.124;2023-04-03T05:52:57;11.13;;;6.47;;
55913;SDS011;58179;48.776;9.124;2023-04-03T05:55:24;12.25;;;6.65;;
55913;SDS011;58179;48.776;9.124;2023-04-03T05:57:50;7.85;;;6.28;;
55913;SDS011;58179;48.776;9.124;2023-04-03T06:00:16;9.73;;;5.88;;
55913;SDS011;58179;48.776;9.124;2023-04-03T06:02:43;7.30;;;5.75;;
55913;SDS011;58179;48.776;9.124;2023-04-03T06:05:10;10.80;;;6.53;;
55913;SDS011;58179;48.776;9.124;2023-04-03T06:07:37;7.80;;;5.63;;
55913;SDS011;58179;48.776;9.124;2023-04-03T06:10:03;9.50;;;6.60;;
55913;SDS011;58179;48.776;9.124;2023-04-03T06:12:33;8.77;;;6.10;;
55913;SDS011;58179;48.776;9.124;2023-04-03T06:14:58;8.32;;;5.75;;
55913;SDS011;58179;48.776;9.124;2023-04-03T06:17:24;8.13;;;5.93;;
55913;SDS011;58179;48.776;9.124;2023-04-03T06:19:52;8.07;;;5.80;;
55913;SDS011;58179;48.776;9.124;2023-04-03T06:22:19;7.13;;;5.67;;
55913;SDS011;58179;48.776;9.124;2023-04-03T06:24:46;8.43;;;5.38;;
55913;SDS011;58179;48.776;9.124;2023-04-03T06:27:12;7.10;;;5.37;;
55913;SDS011;58179;48.776;9.124;2023-04-03T06:29:38;7.85;;;6.05;;
55913;SDS011;58179;48.776;9.124;2023-04-03T06:32:04;7.47;;;5.50;;
55913;SDS011;58179;48.776;9.124;2023-04-03T06:34:30;9.00;;;5.10;;
55913;SDS011;58179;48.776;9.124;2023-04-03T06:36:57;8.30;;;4.97;;
55913;SDS011;58179;48.776;9.124;2023-04-03T06:39:24;10.13;;;5.60;;
55913;SDS011;58179;48.776;9.124;2023-04-03T06:41:50;6.82;;;4.72;;
55913;SDS011;58179;48.776;9.124;2023-04-03T06:44:16;9.05;;;5.80;;
55913;SDS011;58179;48.776;9.124;2023-04-03T06:46:43;6.80;;;5.05;;
55913;SDS011;58179;48.776;9.124;2023-04-03T06:49:11;6.45;;;4.82;;
55913;SDS011;58179;48.776;9.124;2023-04-03T06:51:37;7.10;;;5.03;;
55913;SDS011;58179;48.776;9.124;2023-04-03T06:54:04;6.90;;;4.95;;
55913;SDS011;58179;48.776;9.124;2023-04-03T06:56:32;9.07;;;4.93;;
55913;SDS011;58179;48.776;9.124;2023-04-03T06:58:58;10.57;;;5.50;;
55913;SDS011;58179;48.776;9.124;2023-04-03T07:01:25;9.35;;;5.15;;
55913;SDS011;58179;48.776;9.124;2023-04-03T07:03:52;8.00;;;4.93;;
55913;SDS011;58179;48.776;9.124;2023-04-03T07:06:19;8.82;;;5.03;;
55913;SDS011;58179;48.776;9.124;2023-04-03T07:08:45;8.52;;;6.25;;
55913;SDS011;58179;48.776;9.124;2023-04-03T07:11:13;8.02;;;5.55;;
55913;SDS011;58179;48.776;9.124;2023-04-03T07:13:40;6.50;;;4.82;;
55913;SDS011;58179;48.776;9.124;2023-04-03T07:16:07;9.37;;;5.53;;
55913;SDS011;58179;48.776;9.124;2023-04-03T07:18:34;8.88;;;5.78;;
55913;SDS011;58179;48.776;9.124;2023-04-03T07:21:00;7.28;;;5.07;;
55913;SDS011;58179;48.776;9.124;2023-04-03T07:23:27;8.38;;;5.15;;
55913;SDS011;58179;48.776;9.124;2023-04-03T07:25:53;7.80;;;5.40;;
55913;SDS011;58179;48.776;9.124;2023-04-03T07:28:20;7.97;;;4.90;;
55913;SDS011;58179;48.776;9.124;2023-04-03T07:30:49;10.73;;;5.28;;
55913;SDS011;58179;48.776;9.124;2023-04-03T07:33:19;7.05;;;5.03;;
55913;SDS011;58179;48.776;9.124;2023-04-03T07:35:47;7.90;;;4.80;;
55913;SDS011;58179;48.776;9.124;2023-04-03T07:38:14;7.10;;;4.93;;
55913;SDS011;58179;48.776;9.124;2023-04-03T07:40:41;9.75;;;5.13;;
55913;SDS011;58179;48.776;9.124;2023-04-03T07:43:11;9.30;;;5.20;;
55913;SDS011;58179;48.776;9.124;2023-04-03T07:45:37;6.78;;;5.43;;
55913;SDS011;58179;48.776;9.124;2023-04-03T07:48:04;7.88;;;5.00;;
55913;SDS011;58179;48.776;9.124;2023-04-03T07:50:31;7.20;;;5.15;;
55913;SDS011;58179;48.776;9.124;2023-04-03T07:52:57;5.97;;;4.90;;
55913;SDS011;58179;48.776;9.124;2023-04-03T07:55:23;8.45;;;4.90;;
55913;SDS011;58179;48.776;9.124;2023-04-03T07:57:49;7.95;;;5.20;;
55913;SDS011;58179;48.776;9.124;2023-04-03T08:00:15;8.07;;;4.93;;
55913;SDS011;58179;48.776;9.124;2023-04-03T08:02:42;9.32;;;5.00;;
55913;SDS011;58179;48.776;9.124;2023-04-03T08:05:10;9.50;;;4.88;;
55913;SDS011;58179;48.776;9.124;2023-04-03T08:07:37;6.93;;;4.70;;
55913;SDS011;58179;48.776;9.124;2023-04-03T08:10:03;8.10;;;5.40;;
55913;SDS011;58179;48.776;9.124;2023-04-03T08:12:30;7.37;;;5.03;;
55913;SDS011;58179;48.776;9.124;2023-04-03T08:14:59;7.18;;;4.80;;
55913;SDS011;58179;48.776;9.124;2023-04-03T08:17:26;7.15;;;4.78;;
55913;SDS011;58179;48.776;9.124;2023-04-03T08:19:52;7.77;;;4.60;;
55913;SDS011;58179;48.776;9.124;2023-04-03T08:22:19;8.02;;;4.47;;
55913;SDS011;58179;48.776;9.124;2023-04-03T08:24:46;7.63;;;4.72;;
55913;SDS011;58179;48.776;9.124;2023-04-03T08:27:13;5.95;;;4.38;;
55913;SDS011;58179;48.776;9.124;2023-04-03T08:29:39;6.75;;;4.30;;
55913;SDS011;58179;48.776;9.124;2023-04-03T08:32:05;8.73;;;4.50;;
55913;SDS011;58179;48.776;9.124;2023-04-03T08:34:31;9.35;;;4.78;;
55913;SDS011;58179;48.776;9.124;2023-04-03T08:36:59;7.22;;;4.35;;
55913;SDS011;58179;48.776;9.124;2023-04-03T08:39:27;6.53;;;4.18;;
55913;SDS011;58179;48.776;9.124;2023-04-03T08:41:55;8.60;;;4.53;;
55913;SDS011;58179;48.776;9.124;2023-04-03T08:44:24;7.45;;;4.10;;
55913;SDS011;58179;48.776;9.124;2023-04-03T08:47:04;8.23;;;4.57;;
55913;SDS011;58179;48.776;9.124;2023-04-03T08:49:43;8.87;;;4.60;;
55913;SDS011;58179;48.776;9.124;2023-04-03T08:52:14;4.53;;;3.90;;
55913;SDS011;58179;48.776;9.124;2023-04-03T08:54:50;9.93;;;4.63;;
55913;SDS011;58179;48.776;9.124;2023-04-03T08:57:20;6.50;;;4.38;;
55913;SDS011;58179;48.776;9.124;2023-04-03T08:59:53;9.20;;;4.88;;
55913;SDS011;58179;48.776;9.124;2023-04-03T09:02:25;8.87;;;4.70;;
55913;SDS011;58179;48.776;9.124;2023-04-03T09:04:58;8.68;;;4.20;;
55913;SDS011;58179;48.776;9.124;2023-04-03T09:07:30;6.90;;;4.18;;
55913;SDS011;58179;48.776;9.124;2023-04-03T09:10:08;8.38;;;4.00;;
55913;SDS011;58179;48.776;9.124;2023-04-03T09:12:39;6.97;;;4.10;;
55913;SDS011;58179;48.776;9.124;2023-04-03T09:15:14;6.15;;;3.92;;
55913;SDS011;58179;48.776;9.124;2023-04-03T09:17:46;9.82;;;4.00;;
55913;SDS011;58179;48.776;9.124;2023-04-03T09:20:25;7.50;;;4.07;;
55913;SDS011;58179;48.776;9.124;2023-04-03T09:23:03;6.30;;;3.57;;
55913;SDS011;58179;48.776;9.124;2023-04-03T09:25:41;6.28;;;3.80;;
55913;SDS011;58179;48.776;9.124;2023-04-03T09:28:09;4.55;;;3.47;;
55913;SDS011;58179;48.776;9.124;2023-04-03T09:30:36;8.52;;;3.85;;
55913;SDS011;58179;48.776;9.124;2023-04-03T09:33:03;6.60;;;4.30;;
55913;SDS011;58179;48.776;9.124;2023-04-03T09:35:31;6.53;;;3.80;;
55913;SDS011;58179;48.776;9.124;2023-04-03T09:37:59;9.88;;;3.97;;
55913;SDS011;58179;48.776;9.124;2023-04-03T09:40:28;10.85;;;3.67;;
55913;SDS011;58179;48.776;9.124;2023-04-03T09:43:19;6.93;;;3.78;;
55913;SDS011;58179;48.776;9.124;2023-04-03T09:45:51;4.75;;;3.30;;
55913;SDS011;58179;48.776;9.124;2023-04-03T09:48:19;8.25;;;4.07;;
55913;SDS011;58179;48.776;9.124;2023-04-03T09:50:56;4.95;;;3.42;;
55913;SDS011;58179;48.776;9.124;2023-04-03T09:53:27;6.15;;;3.67;;
55913;SDS011;58179;48.776;9.124;2023-04-03T09:56:04;5.55;;;3.33;;
55913;SDS011;58179;48.776;9.124;2023-04-03T09:58:48;7.70;;;4.22;;
55913;SDS011;58179;48.776;9.124;2023-04-03T10:01:20;5.35;;;3.88;;
55913;SDS011;58179;48.776;9.124;2023-04-03T10:04:02;7.45;;;4.03;;
55913;SDS011;58179;48.776;9.124;2023-04-03T10:06:36;6.35;;;3.83;;
55913;SDS011;58179;48.776;9.124;2023-04-03T10:09:10;6.85;;;4.00;;
55913;SDS011;58179;48.776;9.124;2023-04-03T10:11:57;6.75;;;3.67;;
55913;SDS011;58179;48.776;9.124;2023-04-03T10:14:28;5.97;;;3.78;;
55913;SDS011;58179;48.776;9.124;2023-04-03T10:16:57;6.07;;;3.70;;
55913;SDS011;58179;48.776;9.124;2023-04-03T10:19:44;6.28;;;3.50;;
55913;SDS011;58179;48.776;9.124;2023-04-03T10:22:18;6.80;;;3.70;;
55913;SDS011;58179;48.776;9.124;2023-04-03T10:24:57;5.95;;;3.65;;
55913;SDS011;58179;48.776;9.124;2023-04-03T10:27:36;6.00;;;3.45;;
55913;SDS011;58179;48.776;9.124;2023-04-03T10:30:19;5.25;;;3.40;;
55913;SDS011;58179;48.776;9.124;2023-04-03T10:32:58;6.05;;;3.60;;
55913;SDS011;58179;48.776;9.124;2023-04-03T10:35:48;6.97;;;3.45;;
55913;SDS011;58179;48.776;9.124;2023-04-03T10:38:30;4.77;;;3.33;;
55913;SDS011;58179;48.776;9.124;2023-04-03T10:41:09;4.93;;;3.00;;
55913;SDS011;58179;48.776;9.124;2023-04-03T10:43:48;5.47;;;3.08;;
55913;SDS011;58179;48.776;9.124;2023-04-03T10:46:26;9.90;;;3.37;;
55913;SDS011;58179;48.776;9.124;2023-04-03T10:49:07;6.63;;;3.47;;
55913;SDS011;58179;48.776;9.124;2023-04-03T10:51:53;4.83;;;3.30;;
55913;SDS011;58179;48.776;9.124;2023-04-03T10:54:29;6.50;;;3.22;;
55913;SDS011;58179;48.776;9.124;2023-04-03T10:57:01;8.88;;;3.42;;
55913;SDS011;58179;48.776;9.124;2023-04-03T10:59:31;7.25;;;3.55;;
55913;SDS011;58179;48.776;9.124;2023-04-03T11:02:04;7.60;;;3.70;;
55913;SDS011;58179;48.776;9.124;2023-04-03T11:04:40;5.95;;;3.50;;
55913;SDS011;58179;48.776;9.124;2023-04-03T11:07:10;6.03;;;3.30;;
55913;SDS011;58179;48.776;9.124;2023-04-03T11:09:42;5.40;;;3.15;;
55913;SDS011;58179;48.776;9.124;2023-04-03T11:12:14;6.18;;;3.38;;
55913;SDS011;58179;48.776;9.124;2023-04-03T11:14:46;5.30;;;3.20;;
55913;SDS011;58179;48.776;9.124;2023-04-03T11:17:21;9.05;;;3.22;;
55913;SDS011;58179;48.776;9.124;2023-04-03T11:19:57;4.32;;;2.70;;
55913;SDS011;58179;48.776;9.124;2023-04-03T11:22:32;5.15;;;3.05;;
55913;SDS011;58179;48.776;9.124;2023-04-03T11:25:06;7.53;;;2.95;;
55913;SDS011;58179;48.776;9.124;2023-04-03T11:27:45;5.50;;;2.95;;
55913;SDS011;58179;48.776;9.124;2023-04-03T11:30:17;6.10;;;3.03;;
55913;SDS011;58179;48.776;9.124;2023-04-03T11:32:52;5.80;;;2.92;;
55913;SDS011;58179;48.776;9.124;2023-04-03T11:35:37;4.95;;;2.92;;
55913;SDS011;58179;48.776;9.124;2023-04-03T11:38:10;3.97;;;2.58;;
55913;SDS011;58179;48.776;9.124;2023-04-03T11:40:45;4.97;;;2.70;;
55913;SDS011;58179;48.776;9.124;2023-04-03T11:43:20;4.80;;;2.50;;
55913;SDS011;58179;48.776;9.124;2023-04-03T11:45:52;5.70;;;2.80;;
55913;SDS011;58179;48.776;9.124;2023-04-03T11:51:38;6.72;;;2.70;;
55913;SDS011;58179;48.776;9.124;2023-04-03T12:04:08;4.13;;;2.42;;
55913;SDS011;58179;48.776;9.124;2023-04-03T12:06:48;4.45;;;3.05;;
55913;SDS011;58179;48.776;9.124;2023-04-03T12:09:57;5.33;;;2.63;;
55913;SDS011;58179;48.776;9.124;2023-04-03T12:12:29;4.60;;;2.65;;
55913;SDS011;58179;48.776;9.124;2023-04-03T12:15:18;4.72;;;2.67;;
55913;SDS011;58179;48.776;9.124;2023-04-03T12:17:49;3.70;;;2.40;;
55913;SDS011;58179;48.776;9.124;2023-04-03T12:23:29;10.20;;;2.65;;
55913;SDS011;58179;48.776;9.124;2023-04-03T12:26:04;4.57;;;2.50;;
55913;SDS011;58179;48.776;9.124;2023-04-03T12:28:46;5.73;;;2.83;;
55913;SDS011;58179;48.776;9.124;2023-04-03T12:31:17;5.05;;;3.08;;
55913;SDS011;58179;48.776;9.124;2023-04-03T12:36:50;5.25;;;2.78;;
55913;SDS011;58179;48.776;9.124;2023-04-03T12:39:36;3.92;;;2.80;;
55913;SDS011;58179;48.776;9.124;2023-04-03T12:42:21;4.43;;;2.90;;
55913;SDS011;58179;48.776;9.124;2023-04-03T12:45:17;4.80;;;2.60;;
55913;SDS011;58179;48.776;9.124;2023-04-03T12:47:45;5.47;;;2.85;;
55913;SDS011;58179;48.776;9.124;2023-04-03T12:50:17;5.00;;;2.30;;
55913;SDS011;58179;48.776;9.124;2023-04-03T12:52:51;6.57;;;3.17;;
55913;SDS011;58179;48.776;9.124;2023-04-03T12:55:24;5.18;;;2.80;;
55913;SDS011;58179;48.776;9.124;2023-04-03T12:57:51;5.45;;;2.88;;
55913;SDS011;58179;48.776;9.124;2023-04-03T13:00:22;5.65;;;2.80;;
55913;SDS011;58179;48.776;9.124;2023-04-03T13:02:58;5.57;;;2.70;;
55913;SDS011;58179;48.776;9.124;2023-04-03T13:05:26;4.78;;;2.90;;
55913;SDS011;58179;48.776;9.124;2023-04-03T13:07:56;6.55;;;3.40;;
55913;SDS011;58179;48.776;9.124;2023-04-03T13:10:25;7.32;;;3.17;;
55913;SDS011;58179;48.776;9.124;2023-04-03T13:12:52;5.22;;;2.70;;
55913;SDS011;58179;48.776;9.124;2023-04-03T13:15:20;4.93;;;2.70;;
55913;SDS011;58179;48.776;9.124;2023-04-03T13:17:50;6.70;;;2.90;;
55913;SDS011;58179;48.776;9.124;2023-04-03T13:20:19;5.43;;;2.70;;
55913;SDS011;58179;48.776;9.124;2023-04-03T13:22:50;7.57;;;2.90;;
55913;SDS011;58179;48.776;9.124;2023-04-03T13:25:25;5.72;;;2.53;;
55913;SDS011;58179;48.776;9.124;2023-04-03T13:27:56;5.15;;;2.80;;
55913;SDS011;58179;48.776;9.124;2023-04-03T13:30:26;4.68;;;2.40;;
55913;SDS011;58179;48.776;9.124;2023-04-03T13:32:55;4.32;;;2.55;;
55913;SDS011;58179;48.776;9.124;2023-04-03T13:35:28;4.78;;;2.40;;
55913;SDS011;58179;48.776;9.124;2023-04-03T13:38:03;5.78;;;2.72;;
55913;SDS011;58179;48.776;9.124;2023-04-03T13:40:47;17.75;;;2.70;;
55913;SDS011;58179;48.776;9.124;2023-04-03T13:43:17;4.50;;;2.83;;
55913;SDS011;58179;48.776;9.124;2023-04-03T13:45:53;3.95;;;2.50;;
55913;SDS011;58179;48.776;9.124;2023-04-03T13:48:34;5.55;;;2.80;;
55913;SDS011;58179;48.776;9.124;2023-04-03T13:51:04;5.32;;;2.55;;
55913;SDS011;58179;48.776;9.124;2023-04-03T13:53:44;3.33;;;2.38;;
55913;SDS011;58179;48.776;9.124;2023-04-03T13:56:16;5.07;;;2.70;;
55913;SDS011;58179;48.776;9.124;2023-04-03T13:58:52;6.43;;;3.00;;
55913;SDS011;58179;48.776;9.124;2023-04-03T14:01:34;4.05;;;2.67;;
55913;SDS011;58179;48.776;9.124;2023-04-03T14:04:13;4.07;;;2.42;;
55913;SDS011;58179;48.776;9.124;2023-04-03T14:06:43;3.58;;;2.78;;
55913;SDS011;58179;48.776;9.124;2023-04-03T14:09:12;4.77;;;2.53;;
55913;SDS011;58179;48.776;9.124;2023-04-03T14:11:42;5.57;;;2.78;;
55913;SDS011;58179;48.776;9.124;2023-04-03T14:14:13;4.10;;;2.33;;
55913;SDS011;58179;48.776;9.124;2023-04-03T14:16:44;4.43;;;2.72;;
55913;SDS011;58179;48.776;9.124;2023-04-03T14:19:17;4.57;;;2.40;;
55913;SDS011;58179;48.776;9.124;2023-04-03T14:21:47;6.40;;;2.70;;
55913;SDS011;58179;48.776;9.124;2023-04-03T14:24:17;5.67;;;2.93;;
55913;SDS011;58179;48.776;9.124;2023-04-03T14:26:44;8.02;;;2.70;;
55913;SDS011;58179;48.776;9.124;2023-04-03T14:29:11;4.75;;;2.53;;
55913;SDS011;58179;48.776;9.124;2023-04-03T14:31:40;8.90;;;2.67;;
55913;SDS011;58179;48.776;9.124;2023-04-03T14:34:08;5.68;;;2.83;;
55913;SDS011;58179;48.776;9.124;2023-04-03T14:36:35;6.57;;;3.28;;
55913;SDS011;58179;48.776;9.124;2023-04-03T14:39:03;6.03;;;2.92;;
55913;SDS011;58179;48.776;9.124;2023-04-03T14:41:30;5.22;;;2.75;;
55913;SDS011;58179;48.776;9.124;2023-04-03T14:43:57;4.18;;;3.08;;
55913;SDS011;58179;48.776;9.124;2023-04-03T14:46:24;4.00;;;2.50;;
55913;SDS011;58179;48.776;9.124;2023-04-03T14:48:54;5.88;;;3.00;;
55913;SDS011;58179;48.776;9.124;2023-04-03T14:51:20;4.45;;;2.90;;
55913;SDS011;58179;48.776;9.124;2023-04-03T14:53:46;4.60;;;2.38;;
55913;SDS011;58179;48.776;9.124;2023-04-03T14:56:14;4.67;;;2.40;;
55913;SDS011;58179;48.776;9.124;2023-04-03T14:58:45;4.20;;;2.38;;
55913;SDS011;58179;48.776;9.124;2023-04-03T15:01:14;3.08;;;1.98;;
55913;SDS011;58179;48.776;9.124;2023-04-03T15:03:40;3.03;;;1.80;;
55913;SDS011;58179;48.776;9.124;2023-04-03T15:06:06;6.20;;;2.67;;
55913;SDS011;58179;48.776;9.124;2023-04-03T15:08:35;4.72;;;2.30;;
55913;SDS011;58179;48.776;9.124;2023-04-03T15:11:01;3.47;;;2.25;;
55913;SDS011;58179;48.776;9.124;2023-04-03T15:13:27;5.18;;;2.33;;
55913;SDS011;58179;48.776;9.124;2023-04-03T15:15:54;4.55;;;2.67;;
55913;SDS011;58179;48.776;9.124;2023-04-03T15:18:21;4.53;;;2.70;;
55913;SDS011;58179;48.776;9.124;2023-04-03T15:20:53;6.88;;;3.05;;